Lakeway's Hourly Summary for Friday, July 6, 2018
Hour Temp
(f)
RH
(%)
Solar Rad.
(MJ/m2)
Rainfall
(in)
Wind
(mph)
7/6/2018 12:00 AM 81 66 0 0 0.04
7/6/2018 1:00 AM 80 73 0 0 0
7/6/2018 2:00 AM 78 75 0 0 0
7/6/2018 3:00 AM 77 76 0 0 0
7/6/2018 4:00 AM 77 78 0 0 0
7/6/2018 5:00 AM 77 83 0 0 0
7/6/2018 6:00 AM 77 85 0.01 0.01 0
7/6/2018 7:00 AM 74 95 0.16 0 0
7/6/2018 8:00 AM 77 95 0.56 0 0
7/6/2018 9:00 AM 81 84 1.56 0 0
7/6/2018 10:00 AM 84 74 2.21 0.01 0.01
7/6/2018 11:00 AM 87 65 2.86 0 0.28
7/6/2018 12:00 PM 89 58 2.88 0 1.61
7/6/2018 1:00 PM 91 53 2.88 0 1.92
7/6/2018 2:00 PM 94 46 3.23 0 2.09
7/6/2018 3:00 PM 95 39 3.23 0 2.43
7/6/2018 4:00 PM 96 36 3.04 0 2.43
7/6/2018 5:00 PM 96 34 2.56 0 2.09
7/6/2018 6:00 PM 95 34 1.79 0 1.78
7/6/2018 7:00 PM 94 38 1.31 0 1.67
7/6/2018 8:00 PM 91 44 0.42 0 0.85
7/6/2018 9:00 PM 87 52 0.03 0 1.11
7/6/2018 10:00 PM 85 61 0 0 1.19
7/6/2018 11:00 PM 82 68 0 0 1.19
Data Summary 85 63 28.73 0.02 0.86